SFR340 FALE-FAEL
Flight info
| Callsign | SFR340 |
|---|---|
| Flight time | 0h 56m |
| Altitude | 32000 |
| Route | OKTAN UQ29 ETOVU DCT ELV |
| Aircraft | B738/M-SDE2E3FGHIRWXY/LB1 |
Departure
| Time | 2026-05-04 17:03 |
|---|---|
| Airport | King Shaka International Airport (FALE) |
Arrival
| Time | 2026-05-04 17:59 |
|---|---|
| Airport | King Phalo Airport (FAEL) |
| Time | Latitude | Longitude | Altitude | Speed | Heading |
|---|---|---|---|---|---|
| 2026-05-04 16:29 | -29.62054 | 31.10676 | 285 ft | 0 kts | 130° |
| 2026-05-04 16:54 | -29.62053 | 31.10675 | 284 ft | 1 kts | 130° |
| 2026-05-04 16:55 | -29.61996 | 31.10639 | 286 ft | 3 kts | 202° |
| 2026-05-04 16:55 | -29.61977 | 31.10651 | 289 ft | 0 kts | 214° |
| 2026-05-04 16:59 | -29.61979 | 31.10650 | 289 ft | 1 kts | 214° |
| 2026-05-04 17:00 | -29.62151 | 31.10501 | 284 ft | 12 kts | 217° |
| 2026-05-04 17:00 | -29.62331 | 31.10536 | 284 ft | 11 kts | 128° |
| 2026-05-04 17:01 | -29.62424 | 31.10675 | 285 ft | 11 kts | 128° |
| 2026-05-04 17:01 | -29.62467 | 31.10813 | 291 ft | 10 kts | 39° |
| 2026-05-04 17:02 | -29.62165 | 31.11072 | 293 ft | 79 kts | 37° |
| 2026-05-04 17:02 | -29.60632 | 31.12387 | 448 ft | 182 kts | 34° |
| 2026-05-04 17:03 | -29.59519 | 31.13237 | 1077 ft | 203 kts | 34° |
| 2026-05-04 17:03 | -29.58390 | 31.14174 | 2059 ft | 198 kts | 38° |
| 2026-05-04 17:03 | -29.56558 | 31.16416 | 3394 ft | 208 kts | 80° |
| 2026-05-04 17:04 | -29.58296 | 31.18808 | 4591 ft | 204 kts | 164° |
| 2026-05-04 17:04 | -29.61142 | 31.19011 | 5768 ft | 221 kts | 199° |
| 2026-05-04 17:05 | -29.63990 | 31.16863 | 6054 ft | 271 kts | 221° |
| 2026-05-04 17:05 | -29.67028 | 31.14010 | 7249 ft | 286 kts | 221° |
| 2026-05-04 17:06 | -29.70127 | 31.11175 | 8814 ft | 287 kts | 220° |
| 2026-05-04 17:06 | -29.71724 | 31.09738 | 9621 ft | 289 kts | 220° |
| 2026-05-04 17:07 | -29.75024 | 31.06796 | 10390 ft | 321 kts | 219° |
| 2026-05-04 17:07 | -29.76222 | 31.05731 | 10536 ft | 334 kts | 219° |
| 2026-05-04 17:07 | -29.78725 | 31.03519 | 11235 ft | 343 kts | 219° |
| 2026-05-04 17:07 | -29.80631 | 31.01839 | 11914 ft | 346 kts | 219° |
| 2026-05-04 17:08 | -29.82531 | 31.00166 | 12611 ft | 349 kts | 220° |
| 2026-05-04 17:08 | -29.86429 | 30.96730 | 13956 ft | 357 kts | 220° |
| 2026-05-04 17:08 | -29.88417 | 30.94977 | 14576 ft | 362 kts | 221° |
| 2026-05-04 17:09 | -29.90426 | 30.93205 | 15218 ft | 366 kts | 221° |
| 2026-05-04 17:09 | -29.92461 | 30.91408 | 15846 ft | 370 kts | 221° |
| 2026-05-04 17:09 | -29.94515 | 30.89593 | 16481 ft | 374 kts | 222° |
| 2026-05-04 17:10 | -29.98695 | 30.85897 | 17720 ft | 383 kts | 223° |
| 2026-05-04 17:10 | -30.05127 | 30.80204 | 19421 ft | 392 kts | 223° |
| 2026-05-04 17:11 | -30.07299 | 30.78280 | 19996 ft | 395 kts | 224° |
| 2026-05-04 17:11 | -30.09491 | 30.76337 | 20558 ft | 398 kts | 224° |
| 2026-05-04 17:11 | -30.13920 | 30.72407 | 21637 ft | 404 kts | 224° |
| 2026-05-04 17:12 | -30.16157 | 30.70420 | 22153 ft | 408 kts | 224° |
| 2026-05-04 17:12 | -30.20686 | 30.66394 | 23210 ft | 413 kts | 225° |
| 2026-05-04 17:13 | -30.27577 | 30.60261 | 24547 ft | 419 kts | 225° |
| 2026-05-04 17:14 | -30.34720 | 30.54233 | 25830 ft | 428 kts | 222° |
| 2026-05-04 17:14 | -30.37193 | 30.52290 | 26227 ft | 431 kts | 222° |
| 2026-05-04 17:14 | -30.42165 | 30.48380 | 27114 ft | 431 kts | 223° |
| 2026-05-04 17:15 | -30.44628 | 30.46429 | 27723 ft | 428 kts | 223° |
| 2026-05-04 17:15 | -30.49501 | 30.42545 | 28883 ft | 423 kts | 223° |
| 2026-05-04 17:16 | -30.54316 | 30.38688 | 29985 ft | 419 kts | 224° |
| 2026-05-04 17:16 | -30.61441 | 30.32972 | 31421 ft | 411 kts | 224° |
| 2026-05-04 17:17 | -30.63780 | 30.31092 | 31848 ft | 410 kts | 225° |
| 2026-05-04 17:18 | -30.72965 | 30.23310 | 31883 ft | 399 kts | 233° |
| 2026-05-04 17:19 | -30.80988 | 30.14351 | 31877 ft | 402 kts | 233° |
| 2026-05-04 17:20 | -30.89106 | 30.05342 | 31876 ft | 403 kts | 233° |
| 2026-05-04 17:20 | -30.95150 | 29.98654 | 31891 ft | 400 kts | 233° |
| 2026-05-04 17:21 | -31.03192 | 29.89730 | 31905 ft | 399 kts | 233° |
| 2026-05-04 17:22 | -31.07209 | 29.85264 | 31892 ft | 398 kts | 233° |
| 2026-05-04 17:23 | -31.15216 | 29.76346 | 31904 ft | 399 kts | 233° |
| 2026-05-04 17:24 | -31.21229 | 29.69636 | 31912 ft | 398 kts | 233° |
| 2026-05-04 17:25 | -31.29237 | 29.60679 | 31914 ft | 399 kts | 233° |
| 2026-05-04 17:26 | -31.37246 | 29.51698 | 31921 ft | 399 kts | 234° |
| 2026-05-04 17:27 | -31.46588 | 29.41193 | 31938 ft | 399 kts | 233° |
| 2026-05-04 17:28 | -31.54568 | 29.32201 | 31939 ft | 398 kts | 233° |
| 2026-05-04 17:29 | -31.60429 | 29.25589 | 31932 ft | 385 kts | 234° |
| 2026-05-04 17:29 | -31.66186 | 29.19070 | 31935 ft | 372 kts | 234° |
| 2026-05-04 17:30 | -31.71488 | 29.13092 | 31924 ft | 333 kts | 235° |
| 2026-05-04 17:31 | -31.74740 | 29.09393 | 31952 ft | 325 kts | 236° |
| 2026-05-04 17:31 | -31.79770 | 29.03615 | 31978 ft | 348 kts | 235° |
| 2026-05-04 17:32 | -31.83242 | 28.99664 | 31957 ft | 344 kts | 235° |
| 2026-05-04 17:33 | -31.90062 | 28.91894 | 31950 ft | 342 kts | 236° |
| 2026-05-04 17:34 | -31.96893 | 28.84083 | 31960 ft | 343 kts | 236° |
| 2026-05-04 17:35 | -32.05472 | 28.74247 | 31966 ft | 346 kts | 235° |
| 2026-05-04 17:35 | -32.07192 | 28.72277 | 31829 ft | 342 kts | 236° |
| 2026-05-04 17:36 | -32.08898 | 28.70322 | 31468 ft | 340 kts | 235° |
| 2026-05-04 17:36 | -32.10594 | 28.68372 | 30699 ft | 346 kts | 235° |
| 2026-05-04 17:36 | -32.12369 | 28.66308 | 29295 ft | 372 kts | 234° |
| 2026-05-04 17:36 | -32.14249 | 28.64126 | 28435 ft | 383 kts | 233° |
| 2026-05-04 17:37 | -32.16145 | 28.61950 | 27932 ft | 377 kts | 233° |
| 2026-05-04 17:37 | -32.18020 | 28.59808 | 27390 ft | 372 kts | 233° |
| 2026-05-04 17:37 | -32.19869 | 28.57690 | 26789 ft | 369 kts | 233° |
| 2026-05-04 17:37 | -32.21671 | 28.55623 | 26642 ft | 353 kts | 233° |
| 2026-05-04 17:38 | -32.23403 | 28.53635 | 26312 ft | 344 kts | 233° |
| 2026-05-04 17:38 | -32.25104 | 28.51666 | 25743 ft | 343 kts | 233° |
| 2026-05-04 17:38 | -32.26805 | 28.49693 | 25192 ft | 342 kts | 233° |
| 2026-05-04 17:38 | -32.28394 | 28.47659 | 24699 ft | 328 kts | 246° |
| 2026-05-04 17:39 | -32.31058 | 28.43422 | 23733 ft | 341 kts | 221° |
| 2026-05-04 17:39 | -32.33041 | 28.41918 | 23257 ft | 335 kts | 225° |
| 2026-05-04 17:39 | -32.34848 | 28.40235 | 22683 ft | 327 kts | 231° |
| 2026-05-04 17:40 | -32.36223 | 28.38163 | 22059 ft | 307 kts | 254° |
| 2026-05-04 17:40 | -32.36714 | 28.35800 | 21512 ft | 291 kts | 271° |
| 2026-05-04 17:40 | -32.37238 | 28.33462 | 20809 ft | 308 kts | 248° |
| 2026-05-04 17:40 | -32.38773 | 28.31540 | 19918 ft | 341 kts | 218° |
| 2026-05-04 17:41 | -32.41066 | 28.30598 | 19287 ft | 359 kts | 195° |
| 2026-05-04 17:41 | -32.43523 | 28.30337 | 18844 ft | 358 kts | 191° |
| 2026-05-04 17:41 | -32.45903 | 28.29636 | 18302 ft | 340 kts | 214° |
| 2026-05-04 17:41 | -32.47739 | 28.28042 | 17715 ft | 319 kts | 237° |
| 2026-05-04 17:42 | -32.48814 | 28.25861 | 17134 ft | 299 kts | 261° |
| 2026-05-04 17:42 | -32.48882 | 28.23505 | 16556 ft | 281 kts | 290° |
| 2026-05-04 17:42 | -32.47920 | 28.21571 | 15959 ft | 275 kts | 318° |
| 2026-05-04 17:42 | -32.46214 | 28.20585 | 15399 ft | 280 kts | 347° |
| 2026-05-04 17:43 | -32.44255 | 28.20850 | 14836 ft | 295 kts | 17° |
| 2026-05-04 17:43 | -32.42594 | 28.22359 | 14306 ft | 313 kts | 47° |
| 2026-05-04 17:43 | -32.41722 | 28.24758 | 13825 ft | 329 kts | 76° |
| 2026-05-04 17:43 | -32.41904 | 28.27475 | 13304 ft | 338 kts | 106° |
| 2026-05-04 17:44 | -32.43128 | 28.29837 | 12758 ft | 341 kts | 136° |
| 2026-05-04 17:44 | -32.45083 | 28.31362 | 12271 ft | 335 kts | 154° |
| 2026-05-04 17:44 | -32.47144 | 28.32646 | 11741 ft | 335 kts | 154° |
| 2026-05-04 17:44 | -32.49194 | 28.33948 | 11220 ft | 333 kts | 153° |
| 2026-05-04 17:45 | -32.51228 | 28.35249 | 10744 ft | 331 kts | 153° |
| 2026-05-04 17:45 | -32.53239 | 28.36542 | 10354 ft | 326 kts | 153° |
| 2026-05-04 17:45 | -32.55201 | 28.37805 | 10113 ft | 315 kts | 153° |
| 2026-05-04 17:45 | -32.57089 | 28.39021 | 10016 ft | 301 kts | 153° |
| 2026-05-04 17:46 | -32.58893 | 28.40186 | 9980 ft | 291 kts | 153° |
| 2026-05-04 17:46 | -32.60656 | 28.41326 | 9954 ft | 289 kts | 153° |
| 2026-05-04 17:46 | -32.62561 | 28.42336 | 9761 ft | 313 kts | 172° |
| 2026-05-04 17:46 | -32.64682 | 28.42234 | 9510 ft | 302 kts | 206° |
| 2026-05-04 17:47 | -32.66363 | 28.40933 | 9277 ft | 283 kts | 238° |
| 2026-05-04 17:47 | -32.67510 | 28.39074 | 9055 ft | 278 kts | 239° |
| 2026-05-04 17:47 | -32.68770 | 28.37327 | 8795 ft | 278 kts | 236° |
| 2026-05-04 17:47 | -32.70079 | 28.35662 | 8545 ft | 276 kts | 234° |
| 2026-05-04 17:48 | -32.71413 | 28.34030 | 8282 ft | 273 kts | 233° |
| 2026-05-04 17:48 | -32.72732 | 28.32451 | 8186 ft | 261 kts | 233° |
| 2026-05-04 17:48 | -32.73981 | 28.30978 | 8073 ft | 247 kts | 233° |
| 2026-05-04 17:48 | -32.75166 | 28.29591 | 7954 ft | 231 kts | 233° |
| 2026-05-04 17:49 | -32.76271 | 28.28302 | 7820 ft | 214 kts | 234° |
| 2026-05-04 17:49 | -32.77327 | 28.27064 | 7439 ft | 212 kts | 234° |
| 2026-05-04 17:49 | -32.78360 | 28.25853 | 7223 ft | 206 kts | 235° |
| 2026-05-04 17:49 | -32.79370 | 28.24669 | 7003 ft | 203 kts | 235° |
| 2026-05-04 17:50 | -32.80372 | 28.23494 | 6789 ft | 203 kts | 234° |
| 2026-05-04 17:50 | -32.81375 | 28.22318 | 6579 ft | 203 kts | 234° |
| 2026-05-04 17:50 | -32.82380 | 28.21141 | 6362 ft | 204 kts | 234° |
| 2026-05-04 17:50 | -32.83392 | 28.19957 | 6127 ft | 204 kts | 234° |
| 2026-05-04 17:51 | -32.84191 | 28.19022 | 5939 ft | 205 kts | 233° |
| 2026-05-04 17:51 | -32.85204 | 28.17838 | 5718 ft | 205 kts | 233° |
| 2026-05-04 17:51 | -32.86224 | 28.16647 | 5480 ft | 206 kts | 232° |
| 2026-05-04 17:51 | -32.87245 | 28.15453 | 5250 ft | 206 kts | 232° |
| 2026-05-04 17:52 | -32.88271 | 28.14254 | 5016 ft | 207 kts | 231° |
| 2026-05-04 17:52 | -32.89298 | 28.13055 | 4791 ft | 207 kts | 231° |
| 2026-05-04 17:52 | -32.90327 | 28.11853 | 4545 ft | 207 kts | 230° |
| 2026-05-04 17:52 | -32.91353 | 28.10653 | 4306 ft | 207 kts | 229° |
| 2026-05-04 17:53 | -32.92377 | 28.09456 | 4080 ft | 206 kts | 228° |
| 2026-05-04 17:53 | -32.93399 | 28.08262 | 3854 ft | 205 kts | 228° |
| 2026-05-04 17:53 | -32.94402 | 28.07090 | 3710 ft | 199 kts | 227° |
| 2026-05-04 17:53 | -32.95373 | 28.05956 | 3610 ft | 193 kts | 227° |
| 2026-05-04 17:54 | -32.96313 | 28.04856 | 3530 ft | 187 kts | 227° |
| 2026-05-04 17:54 | -32.97230 | 28.03782 | 3448 ft | 185 kts | 226° |
| 2026-05-04 17:54 | -32.98144 | 28.02711 | 3359 ft | 183 kts | 226° |
| 2026-05-04 17:54 | -32.99038 | 28.01663 | 3276 ft | 179 kts | 226° |
| 2026-05-04 17:55 | -32.99924 | 28.00625 | 3175 ft | 179 kts | 226° |
| 2026-05-04 17:55 | -33.00819 | 27.99574 | 3005 ft | 181 kts | 226° |
| 2026-05-04 17:55 | -33.01437 | 27.98302 | 2812 ft | 178 kts | 256° |
| 2026-05-04 17:55 | -33.01711 | 27.96904 | 2667 ft | 170 kts | 256° |
| 2026-05-04 17:56 | -33.01950 | 27.95568 | 2444 ft | 160 kts | 259° |
| 2026-05-04 17:56 | -33.02124 | 27.94299 | 2279 ft | 149 kts | 260° |
| 2026-05-04 17:56 | -33.02277 | 27.93081 | 2071 ft | 149 kts | 260° |
| 2026-05-04 17:56 | -33.02427 | 27.91855 | 1873 ft | 147 kts | 260° |
| 2026-05-04 17:57 | -33.02573 | 27.90666 | 1669 ft | 143 kts | 259° |
| 2026-05-04 17:57 | -33.02715 | 27.89497 | 1496 ft | 142 kts | 260° |
| 2026-05-04 17:57 | -33.02858 | 27.88333 | 1338 ft | 140 kts | 259° |
| 2026-05-04 17:57 | -33.02998 | 27.87191 | 1094 ft | 143 kts | 258° |
| 2026-05-04 17:58 | -33.03131 | 27.86048 | 930 ft | 138 kts | 259° |
| 2026-05-04 17:58 | -33.03261 | 27.84929 | 741 ft | 135 kts | 258° |
| 2026-05-04 17:58 | -33.03401 | 27.83819 | 577 ft | 138 kts | 257° |
| 2026-05-04 17:58 | -33.03540 | 27.82690 | 424 ft | 137 kts | 259° |
| 2026-05-04 17:59 | -33.03670 | 27.81724 | 418 ft | 89 kts | 263° |
| 2026-05-04 17:59 | -33.03730 | 27.81197 | 420 ft | 42 kts | 241° |
| 2026-05-04 17:59 | -33.03843 | 27.81186 | 423 ft | 0 kts | 122° |
| 2026-05-04 18:00 | -33.03844 | 27.81186 | 427 ft | 0 kts | 122° |
| 2026-05-04 18:00 | -33.03848 | 27.81195 | 427 ft | 4 kts | 123° |
| 2026-05-04 18:01 | -33.03871 | 27.81237 | 418 ft | 10 kts | 122° |
| 2026-05-04 18:01 | -33.03875 | 27.81339 | 424 ft | 16 kts | 82° |
| 2026-05-04 18:01 | -33.03851 | 27.81495 | 422 ft | 22 kts | 82° |
| 2026-05-04 18:02 | -33.03801 | 27.81912 | 425 ft | 31 kts | 82° |
| 2026-05-04 18:02 | -33.03768 | 27.82175 | 422 ft | 33 kts | 81° |
| 2026-05-04 18:02 | -33.03738 | 27.82436 | 422 ft | 10 kts | 82° |
| 2026-05-04 18:02 | -33.03724 | 27.82556 | 423 ft | 18 kts | 82° |
| 2026-05-04 18:03 | -33.03704 | 27.82727 | 423 ft | 24 kts | 82° |
| 2026-05-04 18:03 | -33.03689 | 27.82804 | 420 ft | 8 kts | 71° |
| 2026-05-04 18:03 | -33.03685 | 27.82866 | 420 ft | 8 kts | 109° |
| 2026-05-04 18:03 | -33.03702 | 27.82895 | 417 ft | 0 kts | 132° |
| 2026-05-04 18:04 | -33.03704 | 27.82897 | 417 ft | 2 kts | 133° |
| 2026-05-04 18:04 | -33.03715 | 27.82909 | 420 ft | 1 kts | 138° |
| 2026-05-04 18:04 | -33.03719 | 27.82914 | 420 ft | 0 kts | 137° |